createdAt,value
2023-08-31T00:00:28.230Z,27.10
2023-08-31T00:01:28.296Z,28.10
2023-08-31T00:02:28.366Z,28.10
2023-08-31T00:03:28.303Z,27.50
2023-08-31T00:04:28.318Z,28.20
2023-08-31T00:05:28.243Z,30.40
2023-08-31T00:06:28.252Z,29.60
2023-08-31T00:07:28.243Z,28.60
2023-08-31T00:08:28.301Z,28.00
2023-08-31T00:09:28.169Z,26.30
2023-08-31T00:10:28.189Z,27.40
2023-08-31T00:11:28.205Z,26.60
2023-08-31T00:12:28.139Z,27.90
2023-08-31T00:13:28.157Z,28.60
2023-08-31T00:14:28.197Z,27.20
2023-08-31T00:15:28.092Z,27.90
2023-08-31T00:16:28.109Z,28.00
2023-08-31T00:17:28.188Z,27.40
2023-08-31T00:18:28.111Z,28.40
2023-08-31T00:19:28.112Z,26.90
2023-08-31T00:20:28.114Z,29.30
2023-08-31T00:21:28.117Z,28.60
2023-08-31T00:22:28.093Z,28.10
2023-08-31T00:23:28.128Z,29.20
2023-08-31T00:24:28.035Z,28.90
2023-08-31T00:25:28.036Z,30.20
2023-08-31T00:26:28.077Z,29.10
2023-08-31T00:27:28.053Z,26.80
2023-08-31T00:28:27.990Z,28.30
2023-08-31T00:29:28.004Z,27.70
2023-08-31T00:30:28.099Z,29.70
2023-08-31T00:31:28.001Z,28.50
2023-08-31T00:32:28.076Z,31.10
2023-08-31T00:33:27.982Z,27.70
2023-08-31T00:34:27.979Z,28.80
2023-08-31T00:35:28.005Z,28.50
2023-08-31T00:36:28.021Z,28.50
2023-08-31T00:37:28.032Z,29.20
2023-08-31T00:38:28.060Z,30.00
2023-08-31T00:39:27.943Z,29.00
2023-08-31T00:40:27.993Z,30.10
2023-08-31T00:41:27.956Z,29.00
2023-08-31T00:42:27.902Z,30.30
2023-08-31T00:43:27.925Z,29.90
2023-08-31T00:44:28.000Z,28.70
2023-08-31T00:45:27.915Z,29.70
2023-08-31T00:46:27.985Z,31.40
2023-08-31T00:47:27.906Z,30.50
2023-08-31T00:48:27.898Z,31.90
2023-08-31T00:49:27.856Z,30.10
2023-08-31T00:50:27.925Z,29.70
2023-08-31T00:51:27.846Z,30.30
2023-08-31T00:52:27.892Z,29.80
2023-08-31T00:53:27.907Z,30.00
2023-08-31T00:54:27.827Z,30.80
2023-08-31T00:55:27.832Z,32.20
2023-08-31T00:56:27.886Z,29.90
2023-08-31T00:57:27.904Z,28.90
2023-08-31T00:58:27.776Z,29.80
2023-08-31T00:59:27.800Z,30.00
2023-08-31T01:00:27.807Z,28.70
2023-08-31T01:01:27.837Z,27.60
2023-08-31T01:02:31.506Z,28.70
2023-08-31T01:03:28.866Z,29.10
2023-08-31T01:04:27.830Z,30.30
2023-08-31T01:05:27.808Z,28.10
2023-08-31T01:06:27.708Z,28.30
2023-08-31T01:07:27.726Z,27.90
2023-08-31T01:08:27.830Z,27.90
2023-08-31T01:09:27.740Z,28.30
2023-08-31T01:10:27.793Z,28.10
2023-08-31T01:11:27.707Z,29.20
2023-08-31T01:12:27.752Z,29.10
2023-08-31T01:13:27.730Z,28.90
2023-08-31T01:14:27.779Z,29.10
2023-08-31T01:15:27.750Z,28.50
2023-08-31T01:16:27.767Z,29.40
2023-08-31T01:17:27.775Z,32.20
2023-08-31T01:18:27.696Z,31.70
2023-08-31T01:19:27.622Z,30.20
2023-08-31T01:20:27.741Z,29.10
2023-08-31T01:21:27.635Z,30.00
2023-08-31T01:22:27.637Z,28.00
2023-08-31T01:23:27.595Z,27.10
2023-08-31T01:24:27.671Z,28.10
2023-08-31T01:25:27.672Z,30.30
2023-08-31T01:26:27.642Z,29.20
2023-08-31T01:27:27.632Z,26.50
2023-08-31T01:28:27.580Z,29.40
2023-08-31T01:29:27.586Z,28.90
2023-08-31T01:30:27.647Z,28.40
2023-08-31T01:31:27.579Z,31.10
2023-08-31T01:32:27.588Z,27.90
2023-08-31T01:33:27.568Z,28.70
2023-08-31T01:34:27.545Z,30.30
2023-08-31T01:35:27.608Z,28.60
2023-08-31T01:36:27.540Z,27.30
2023-08-31T01:37:27.524Z,28.60
2023-08-31T01:38:27.570Z,30.60
2023-08-31T01:39:27.579Z,29.20
2023-08-31T01:40:27.507Z,28.90
2023-08-31T01:41:27.552Z,29.60
2023-08-31T01:42:27.526Z,29.60
2023-08-31T01:43:27.473Z,28.20
2023-08-31T01:44:27.604Z,29.80
2023-08-31T01:45:27.555Z,30.10
2023-08-31T01:46:27.570Z,29.70
2023-08-31T01:47:27.433Z,29.60
2023-08-31T01:48:27.421Z,28.10
2023-08-31T01:49:27.498Z,30.20
2023-08-31T01:50:27.498Z,30.40
2023-08-31T01:51:27.413Z,29.30
2023-08-31T01:52:27.409Z,30.40
2023-08-31T01:53:27.427Z,31.20
2023-08-31T01:54:27.407Z,31.90
2023-08-31T01:55:27.425Z,29.40
2023-08-31T01:56:27.462Z,31.20
2023-08-31T01:57:27.372Z,29.40
2023-08-31T01:58:27.358Z,31.00
2023-08-31T01:59:27.394Z,30.40
2023-08-31T02:00:27.361Z,30.80
2023-08-31T02:01:27.396Z,31.70
2023-08-31T02:02:27.471Z,31.80
2023-08-31T02:03:27.448Z,33.50
2023-08-31T02:04:27.317Z,33.40
2023-08-31T02:05:27.388Z,33.10
2023-08-31T02:06:27.300Z,32.60
2023-08-31T02:07:27.302Z,31.90
2023-08-31T02:08:27.381Z,30.60
2023-08-31T02:09:27.272Z,30.90
2023-08-31T02:10:27.335Z,34.20
2023-08-31T02:11:27.272Z,35.60
2023-08-31T02:12:27.258Z,37.10
2023-08-31T02:13:27.258Z,36.70
2023-08-31T02:14:27.293Z,38.30
2023-08-31T02:15:27.286Z,38.40
2023-08-31T02:16:27.216Z,37.20
2023-08-31T02:17:27.298Z,39.30
2023-08-31T02:18:27.291Z,38.50
2023-08-31T02:19:27.188Z,37.00
2023-08-31T02:20:27.311Z,38.30
2023-08-31T02:21:27.192Z,38.70
2023-08-31T02:22:27.188Z,36.90
2023-08-31T02:23:27.210Z,35.60
2023-08-31T02:24:27.253Z,41.10
2023-08-31T02:25:27.231Z,38.20
2023-08-31T02:26:27.209Z,36.50
2023-08-31T02:27:27.192Z,41.70
2023-08-31T02:28:27.159Z,41.60
2023-08-31T02:29:27.153Z,41.80
2023-08-31T02:30:27.159Z,42.80
2023-08-31T02:31:27.181Z,40.70
2023-08-31T02:32:27.196Z,42.70
2023-08-31T02:33:27.102Z,41.40
2023-08-31T02:34:27.103Z,42.10
2023-08-31T02:35:27.104Z,43.30
2023-08-31T02:36:27.087Z,45.30
2023-08-31T02:37:27.093Z,45.50
2023-08-31T02:38:27.123Z,42.90
2023-08-31T02:39:27.086Z,42.40
2023-08-31T02:40:27.048Z,45.60
2023-08-31T02:41:27.109Z,45.30
2023-08-31T02:42:27.053Z,41.90
2023-08-31T02:43:27.038Z,43.30
2023-08-31T02:44:27.094Z,41.20
2023-08-31T02:45:27.044Z,42.20
2023-08-31T02:46:27.050Z,44.40
2023-08-31T02:47:27.012Z,44.50
2023-08-31T02:48:27.173Z,43.20
2023-08-31T02:49:26.996Z,43.70
2023-08-31T02:50:27.029Z,42.90
2023-08-31T02:51:26.976Z,41.90
2023-08-31T02:52:26.948Z,43.80
2023-08-31T02:53:26.945Z,41.90
2023-08-31T02:54:26.953Z,41.50
2023-08-31T02:55:26.960Z,39.90
2023-08-31T02:56:26.997Z,42.50
2023-08-31T02:57:26.931Z,41.60
2023-08-31T02:58:26.931Z,41.90
2023-08-31T02:59:26.914Z,42.60
2023-08-31T03:00:26.937Z,41.90
2023-08-31T03:01:26.909Z,39.60
2023-08-31T03:02:27.007Z,39.30
2023-08-31T03:03:26.898Z,41.40
2023-08-31T03:04:26.870Z,41.80
2023-08-31T03:05:26.879Z,41.90
2023-08-31T03:06:26.869Z,37.30
2023-08-31T03:07:26.863Z,38.80
2023-08-31T03:08:26.925Z,38.50
2023-08-31T03:09:26.869Z,39.30
2023-08-31T03:10:26.822Z,38.50
2023-08-31T03:11:26.809Z,39.20
2023-08-31T03:12:26.821Z,42.10
2023-08-31T03:13:26.820Z,42.60
2023-08-31T03:14:26.936Z,41.40
2023-08-31T03:15:26.854Z,42.90
2023-08-31T03:16:26.841Z,42.40
2023-08-31T03:17:26.792Z,40.90
2023-08-31T03:18:26.778Z,41.30
2023-08-31T03:19:26.908Z,42.10
2023-08-31T03:20:26.856Z,43.50
2023-08-31T03:21:26.772Z,41.40
2023-08-31T03:22:26.759Z,39.30
2023-08-31T03:23:26.758Z,39.30
2023-08-31T03:24:26.750Z,38.50
2023-08-31T03:25:26.776Z,38.70
2023-08-31T03:26:26.767Z,39.70
2023-08-31T03:27:26.687Z,38.70
2023-08-31T03:28:26.696Z,41.70
2023-08-31T03:29:26.701Z,41.30
2023-08-31T03:30:26.718Z,38.20
2023-08-31T03:31:26.722Z,39.10
2023-08-31T03:32:26.723Z,38.60
2023-08-31T03:33:26.659Z,39.90
2023-08-31T03:34:26.716Z,39.50
2023-08-31T03:35:26.715Z,39.90
2023-08-31T03:36:26.667Z,39.70
2023-08-31T03:37:26.683Z,38.40
2023-08-31T03:38:26.701Z,40.50
2023-08-31T03:39:26.702Z,38.80
2023-08-31T03:40:26.710Z,37.80
2023-08-31T03:41:26.726Z,38.90
2023-08-31T03:42:26.675Z,39.10
2023-08-31T03:43:26.671Z,38.00
2023-08-31T03:44:26.642Z,35.70
2023-08-31T03:45:26.600Z,38.50
2023-08-31T03:46:26.617Z,39.40
2023-08-31T03:47:26.648Z,37.80
2023-08-31T03:48:26.584Z,33.20
2023-08-31T03:49:26.545Z,33.70
2023-08-31T03:50:26.640Z,33.70
2023-08-31T03:51:26.614Z,32.90
2023-08-31T03:52:26.556Z,36.40
2023-08-31T03:53:26.514Z,31.80
2023-08-31T03:54:26.601Z,29.40
2023-08-31T03:55:26.578Z,30.10
2023-08-31T03:56:26.653Z,29.40
2023-08-31T03:57:26.572Z,30.20
2023-08-31T03:58:26.484Z,29.10
2023-08-31T03:59:26.578Z,28.10
2023-08-31T04:00:26.512Z,29.70
2023-08-31T04:01:26.593Z,28.20
2023-08-31T04:02:26.580Z,30.40
2023-08-31T04:03:26.588Z,26.00
2023-08-31T04:04:26.519Z,25.30
2023-08-31T04:05:26.430Z,25.80
2023-08-31T04:06:26.458Z,24.10
2023-08-31T04:07:26.458Z,23.10
2023-08-31T04:08:26.497Z,24.00
2023-08-31T04:09:26.544Z,26.60
2023-08-31T04:10:26.392Z,25.10
2023-08-31T04:11:26.464Z,26.60
2023-08-31T04:12:26.415Z,27.00
2023-08-31T04:13:26.454Z,25.90
2023-08-31T04:14:26.522Z,26.70
2023-08-31T04:15:26.470Z,25.60
2023-08-31T04:16:26.406Z,25.90
2023-08-31T04:17:26.415Z,25.70
2023-08-31T04:18:26.419Z,23.60
2023-08-31T04:19:26.393Z,24.60
2023-08-31T04:20:26.416Z,26.10
2023-08-31T04:21:26.369Z,24.70
2023-08-31T04:22:26.365Z,25.30
2023-08-31T04:23:26.355Z,27.90
2023-08-31T04:24:26.330Z,28.10
2023-08-31T04:25:26.340Z,29.00
2023-08-31T04:26:26.373Z,30.70
2023-08-31T04:27:26.401Z,27.30
2023-08-31T04:28:26.236Z,29.30
2023-08-31T04:29:26.290Z,29.40
2023-08-31T04:30:26.232Z,26.70
2023-08-31T04:31:26.293Z,26.10
2023-08-31T04:32:26.325Z,28.90
2023-08-31T04:33:26.267Z,27.60
2023-08-31T04:34:26.232Z,29.40
2023-08-31T04:35:26.262Z,29.20
2023-08-31T04:36:26.236Z,29.60
2023-08-31T04:37:26.257Z,26.70
2023-08-31T04:38:26.333Z,27.00
2023-08-31T04:39:26.304Z,29.50
2023-08-31T04:40:26.252Z,26.10
2023-08-31T04:41:26.173Z,27.00
2023-08-31T04:42:26.171Z,31.50
2023-08-31T04:43:26.131Z,25.60
2023-08-31T04:44:26.289Z,26.50
2023-08-31T04:45:26.140Z,31.40
2023-08-31T04:46:26.155Z,29.20
2023-08-31T04:47:26.176Z,28.70
2023-08-31T04:48:26.110Z,28.70
2023-08-31T04:49:26.117Z,30.60
2023-08-31T04:50:26.128Z,29.10
2023-08-31T04:51:26.082Z,29.10
2023-08-31T04:52:26.146Z,27.50
2023-08-31T04:53:26.154Z,27.70
2023-08-31T04:54:26.104Z,27.00
2023-08-31T04:55:26.067Z,30.10
2023-08-31T04:56:26.120Z,28.70
2023-08-31T04:57:26.106Z,28.10
2023-08-31T04:58:26.071Z,30.30
2023-08-31T04:59:26.104Z,29.10
2023-08-31T05:00:26.022Z,28.60
2023-08-31T05:01:26.078Z,28.10
2023-08-31T05:02:26.116Z,28.20
2023-08-31T05:03:26.010Z,27.30
2023-08-31T05:04:26.032Z,30.00
2023-08-31T05:05:26.041Z,27.50
2023-08-31T05:06:25.971Z,26.60
2023-08-31T05:07:25.975Z,29.50
2023-08-31T05:08:26.032Z,29.40
2023-08-31T05:09:26.032Z,29.10
2023-08-31T05:10:26.044Z,27.80
2023-08-31T05:11:25.968Z,28.00
2023-08-31T05:12:25.955Z,27.10
2023-08-31T05:13:25.979Z,26.80
2023-08-31T05:14:26.034Z,26.70
2023-08-31T05:15:25.933Z,25.70
2023-08-31T05:16:26.085Z,23.30
2023-08-31T05:17:25.991Z,26.70
2023-08-31T05:18:25.904Z,24.90
2023-08-31T05:19:27.774Z,25.50
2023-08-31T05:20:26.010Z,23.80
2023-08-31T05:21:25.847Z,23.60
2023-08-31T05:22:25.928Z,22.70
2023-08-31T05:23:25.934Z,24.90
2023-08-31T05:24:25.951Z,23.50
2023-08-31T05:25:28.458Z,24.30
2023-08-31T05:26:25.984Z,25.00
2023-08-31T05:27:25.906Z,23.90
2023-08-31T05:28:25.839Z,26.00
2023-08-31T05:29:25.844Z,26.80
2023-08-31T05:30:25.848Z,27.00
2023-08-31T05:31:25.866Z,23.70
2023-08-31T05:32:26.009Z,21.90
2023-08-31T05:33:25.842Z,23.20
2023-08-31T05:34:25.777Z,21.70
2023-08-31T05:35:25.873Z,26.40
2023-08-31T05:36:25.776Z,24.30
2023-08-31T05:37:25.856Z,25.40
2023-08-31T05:38:25.800Z,25.60
2023-08-31T05:39:25.801Z,23.50
2023-08-31T05:40:25.833Z,24.00
2023-08-31T05:41:25.760Z,26.00
2023-08-31T05:42:25.860Z,23.60
2023-08-31T05:43:25.736Z,20.80
2023-08-31T05:44:25.792Z,22.60
2023-08-31T05:45:25.735Z,27.00
2023-08-31T05:46:25.792Z,23.60
2023-08-31T05:47:25.735Z,20.20
2023-08-31T05:48:25.722Z,22.20
2023-08-31T05:49:25.714Z,21.70
2023-08-31T05:50:25.730Z,21.00
2023-08-31T05:51:25.716Z,21.00
2023-08-31T05:52:25.726Z,22.10
2023-08-31T05:53:25.710Z,26.80
2023-08-31T05:54:25.686Z,20.90
2023-08-31T05:55:25.722Z,21.20
2023-08-31T05:56:25.752Z,20.40
2023-08-31T05:57:25.627Z,22.80
2023-08-31T05:58:25.698Z,20.70
2023-08-31T05:59:25.600Z,19.80
2023-08-31T06:00:25.677Z,24.80
2023-08-31T06:01:25.740Z,24.90
2023-08-31T06:02:25.786Z,24.10
2023-08-31T06:03:25.557Z,22.50
2023-08-31T06:04:25.624Z,24.80
2023-08-31T06:05:25.611Z,24.10
2023-08-31T06:06:25.576Z,23.50
2023-08-31T06:07:25.622Z,23.20
2023-08-31T06:08:25.614Z,24.20
2023-08-31T06:09:25.779Z,23.60
2023-08-31T06:10:25.534Z,23.50
2023-08-31T06:12:26.447Z,24.70
2023-08-31T06:13:25.584Z,23.30
2023-08-31T06:14:25.654Z,24.10
2023-08-31T06:15:25.564Z,24.20
2023-08-31T06:16:25.618Z,23.60
2023-08-31T06:17:25.580Z,24.50
2023-08-31T06:18:25.480Z,24.30
2023-08-31T06:19:25.561Z,22.40
2023-08-31T06:20:25.547Z,21.70
2023-08-31T06:21:25.532Z,22.00
2023-08-31T06:22:25.516Z,22.10
2023-08-31T06:23:25.498Z,19.60
2023-08-31T06:24:25.526Z,17.30
2023-08-31T06:25:25.901Z,17.40
2023-08-31T06:26:25.979Z,19.10
2023-08-31T06:27:25.412Z,18.10
2023-08-31T06:28:25.474Z,18.80
2023-08-31T06:29:25.445Z,19.30
2023-08-31T06:30:25.422Z,16.30
2023-08-31T06:31:25.597Z,14.80
2023-08-31T06:32:25.580Z,15.30
2023-08-31T06:33:25.420Z,15.80
2023-08-31T06:34:25.375Z,16.40
2023-08-31T06:35:25.399Z,13.90
2023-08-31T06:36:25.338Z,14.90
2023-08-31T06:37:25.383Z,13.60
2023-08-31T06:38:25.420Z,13.40
2023-08-31T06:39:25.395Z,14.20
2023-08-31T06:40:25.372Z,14.20
2023-08-31T06:41:25.386Z,17.10
2023-08-31T06:42:26.602Z,15.70
2023-08-31T06:43:25.354Z,15.00
2023-08-31T06:44:25.329Z,13.80
2023-08-31T06:45:25.281Z,14.10
2023-08-31T06:46:25.646Z,14.40
2023-08-31T06:47:25.257Z,13.70
2023-08-31T06:48:25.318Z,14.40
2023-08-31T06:49:25.268Z,14.60
2023-08-31T06:50:25.380Z,14.50
2023-08-31T06:51:25.455Z,14.20
2023-08-31T06:53:25.308Z,12.80
2023-08-31T06:54:25.274Z,14.00
2023-08-31T06:55:25.230Z,14.60
2023-08-31T06:56:26.135Z,14.20
2023-08-31T06:57:25.182Z,14.20
2023-08-31T06:58:25.221Z,12.80
2023-08-31T06:59:25.265Z,12.20
2023-08-31T07:00:25.163Z,12.20
2023-08-31T07:01:25.262Z,11.60
2023-08-31T07:02:26.394Z,12.10
2023-08-31T07:03:27.371Z,10.60
2023-08-31T07:04:25.174Z,11.40
2023-08-31T07:05:25.136Z,12.80
2023-08-31T07:06:25.126Z,12.20
2023-08-31T07:07:25.174Z,11.20
2023-08-31T07:08:25.161Z,11.10
2023-08-31T07:09:25.111Z,11.20
2023-08-31T07:10:25.135Z,11.00
2023-08-31T07:11:25.164Z,11.40
2023-08-31T07:12:25.138Z,11.20
2023-08-31T07:13:25.107Z,10.20
2023-08-31T07:14:25.172Z,9.30
2023-08-31T07:15:25.102Z,9.00
2023-08-31T07:16:25.198Z,9.30
2023-08-31T07:17:25.131Z,9.60
2023-08-31T07:18:25.079Z,9.60
2023-08-31T07:19:25.040Z,9.90
2023-08-31T07:20:25.229Z,8.60
2023-08-31T07:21:25.047Z,8.80
2023-08-31T07:22:25.097Z,8.70
2023-08-31T07:23:25.060Z,8.40
2023-08-31T07:24:25.069Z,9.00
2023-08-31T07:25:25.090Z,8.70
2023-08-31T07:26:26.087Z,8.20
2023-08-31T07:27:25.020Z,8.40
2023-08-31T07:28:25.006Z,9.00
2023-08-31T07:29:24.996Z,9.20
2023-08-31T07:30:25.030Z,8.20
2023-08-31T07:31:24.984Z,7.80
2023-08-31T07:32:26.051Z,7.30
2023-08-31T07:33:30.941Z,7.30
2023-08-31T07:34:25.913Z,6.80
2023-08-31T07:35:24.955Z,6.90
2023-08-31T07:36:24.964Z,7.30
2023-08-31T07:37:24.909Z,7.00
2023-08-31T07:38:24.982Z,6.30
2023-08-31T07:39:24.931Z,6.10
2023-08-31T07:40:24.891Z,6.10
2023-08-31T07:41:24.949Z,5.60
2023-08-31T07:42:24.881Z,5.90
2023-08-31T07:43:24.939Z,5.70
2023-08-31T07:44:25.967Z,6.30
2023-08-31T07:45:24.878Z,5.80
2023-08-31T07:46:24.946Z,5.80
2023-08-31T07:47:24.859Z,5.30
2023-08-31T07:48:24.902Z,5.40
2023-08-31T07:49:24.797Z,5.20
2023-08-31T07:50:24.897Z,5.20
2023-08-31T07:51:24.799Z,5.30
2023-08-31T07:52:24.852Z,5.00
2023-08-31T07:53:24.866Z,5.60
2023-08-31T07:54:24.806Z,5.40
2023-08-31T07:55:24.840Z,4.50
2023-08-31T07:56:24.875Z,4.50
2023-08-31T07:57:24.776Z,4.60
2023-08-31T07:58:24.807Z,4.80
2023-08-31T07:59:24.811Z,4.60
2023-08-31T08:00:24.839Z,4.50
2023-08-31T08:01:24.831Z,4.40
2023-08-31T08:02:24.990Z,4.30
2023-08-31T08:03:24.923Z,4.50
2023-08-31T08:04:24.742Z,4.00
2023-08-31T08:05:24.706Z,3.80
2023-08-31T08:06:24.738Z,4.10
2023-08-31T08:07:24.765Z,3.50
2023-08-31T08:08:25.762Z,3.50
2023-08-31T08:09:24.754Z,3.20
2023-08-31T08:10:24.664Z,3.40
2023-08-31T08:11:24.705Z,3.60
2023-08-31T08:12:24.671Z,3.80
2023-08-31T08:13:24.710Z,3.70
2023-08-31T08:14:25.786Z,3.20
2023-08-31T08:15:24.720Z,3.50
2023-08-31T08:16:24.721Z,3.30
2023-08-31T08:17:24.623Z,3.30
2023-08-31T08:18:24.662Z,3.30
2023-08-31T08:19:24.671Z,3.30
2023-08-31T08:20:24.670Z,3.40
2023-08-31T08:21:24.589Z,3.00
2023-08-31T08:22:24.675Z,3.10
2023-08-31T08:23:24.669Z,2.70
2023-08-31T08:24:24.646Z,2.90
2023-08-31T08:25:24.573Z,3.10
2023-08-31T08:26:24.700Z,2.70
2023-08-31T08:27:24.559Z,2.90
2023-08-31T08:28:24.606Z,2.80
2023-08-31T08:29:24.555Z,3.40
2023-08-31T08:30:24.574Z,2.80
2023-08-31T08:31:25.777Z,2.50
2023-08-31T08:32:24.728Z,2.60
2023-08-31T08:33:24.528Z,2.50
2023-08-31T08:34:24.519Z,2.50
2023-08-31T08:35:24.573Z,2.60
2023-08-31T08:36:24.490Z,2.50
2023-08-31T08:37:24.489Z,2.40
2023-08-31T08:38:24.572Z,2.70
2023-08-31T08:39:24.510Z,2.70
2023-08-31T08:40:24.474Z,2.30
2023-08-31T08:41:24.518Z,2.60
2023-08-31T08:42:24.503Z,2.60
2023-08-31T08:43:24.499Z,2.50
2023-08-31T08:44:24.573Z,2.20
2023-08-31T08:45:24.467Z,2.30
2023-08-31T08:46:24.486Z,2.20
2023-08-31T08:47:24.503Z,2.30
2023-08-31T08:48:24.377Z,2.00
2023-08-31T08:49:24.404Z,2.00
2023-08-31T08:50:24.531Z,2.20
2023-08-31T08:51:24.381Z,2.10
2023-08-31T08:52:24.439Z,1.80
2023-08-31T08:53:24.395Z,2.20
2023-08-31T08:54:24.352Z,2.00
2023-08-31T08:55:24.366Z,1.60
2023-08-31T08:56:24.439Z,1.90
2023-08-31T08:57:24.413Z,1.90
2023-08-31T08:58:24.397Z,2.00
2023-08-31T08:59:24.387Z,2.30
2023-08-31T09:00:24.323Z,1.80
2023-08-31T09:01:24.492Z,1.80
2023-08-31T09:02:24.400Z,1.80
2023-08-31T09:03:24.305Z,1.90
2023-08-31T09:04:24.313Z,1.60
2023-08-31T09:05:24.430Z,1.80
2023-08-31T09:06:24.335Z,1.80
2023-08-31T09:07:24.270Z,1.60
2023-08-31T09:08:24.381Z,1.80
2023-08-31T09:09:24.308Z,1.90
2023-08-31T09:10:24.314Z,1.60
2023-08-31T09:11:24.349Z,1.70
2023-08-31T09:12:24.229Z,1.50
2023-08-31T09:13:24.212Z,1.50
2023-08-31T09:14:24.268Z,1.60
2023-08-31T09:15:24.289Z,1.40
2023-08-31T09:16:24.311Z,1.50
2023-08-31T09:17:24.323Z,1.80
2023-08-31T09:18:24.224Z,1.50
2023-08-31T09:19:24.227Z,1.60
2023-08-31T09:20:24.237Z,1.60
2023-08-31T09:21:24.170Z,1.70
2023-08-31T09:22:24.146Z,1.40
2023-08-31T09:23:24.182Z,1.70
2023-08-31T09:24:24.149Z,1.50
2023-08-31T09:25:24.176Z,1.90
2023-08-31T09:26:24.159Z,1.40
2023-08-31T09:27:24.251Z,1.70
2023-08-31T09:28:24.141Z,1.50
2023-08-31T09:29:24.161Z,1.60
2023-08-31T09:30:24.143Z,1.60
2023-08-31T09:31:24.179Z,1.50
2023-08-31T09:32:24.366Z,1.70
2023-08-31T09:33:24.121Z,1.70
2023-08-31T09:34:24.077Z,1.90
2023-08-31T09:35:25.492Z,1.70
2023-08-31T09:36:24.032Z,1.50
2023-08-31T09:37:24.054Z,1.50
2023-08-31T09:38:24.131Z,1.60
2023-08-31T09:39:24.078Z,1.60
2023-08-31T09:40:24.089Z,1.70
2023-08-31T09:41:24.073Z,1.70
2023-08-31T09:42:24.013Z,1.40
2023-08-31T09:43:24.017Z,1.70
2023-08-31T09:44:24.095Z,1.50
2023-08-31T09:45:32.334Z,1.80
2023-08-31T09:46:25.013Z,1.60
2023-08-31T09:47:23.990Z,1.50
2023-08-31T09:48:24.065Z,1.60
2023-08-31T09:49:23.995Z,1.50
2023-08-31T09:50:24.062Z,1.50
2023-08-31T09:51:23.938Z,1.70
2023-08-31T09:52:23.964Z,1.50
2023-08-31T09:53:23.947Z,1.50
2023-08-31T09:54:23.970Z,1.60
2023-08-31T09:55:23.908Z,1.40
2023-08-31T09:56:23.951Z,1.50
2023-08-31T09:57:36.169Z,1.50
2023-08-31T09:58:25.009Z,1.60
2023-08-31T09:59:23.960Z,1.30
2023-08-31T10:00:23.849Z,1.40
2023-08-31T10:01:29.826Z,1.20
2023-08-31T10:02:25.054Z,2.50
2023-08-31T10:03:23.966Z,1.20
2023-08-31T10:04:23.906Z,1.30
2023-08-31T10:05:25.669Z,1.30
2023-08-31T10:06:23.912Z,1.20
2023-08-31T10:07:23.837Z,1.30
2023-08-31T10:08:23.917Z,1.40
2023-08-31T10:09:23.875Z,1.40
2023-08-31T10:10:23.817Z,1.20
2023-08-31T10:11:23.803Z,1.30
2023-08-31T10:12:23.911Z,1.50
2023-08-31T10:13:23.840Z,1.40
2023-08-31T10:14:24.843Z,1.90
2023-08-31T10:15:23.880Z,1.30
2023-08-31T10:16:23.819Z,1.40
2023-08-31T10:17:23.820Z,1.30
2023-08-31T10:18:23.808Z,1.40
2023-08-31T10:19:23.790Z,1.20
2023-08-31T10:20:24.800Z,1.20
2023-08-31T10:21:23.856Z,1.10
2023-08-31T10:22:23.741Z,1.30
2023-08-31T10:23:23.769Z,1.50
2023-08-31T10:24:23.695Z,1.50
2023-08-31T10:25:23.722Z,1.20
2023-08-31T10:26:23.752Z,1.30
2023-08-31T10:27:23.682Z,1.00
2023-08-31T10:28:23.740Z,1.20
2023-08-31T10:29:23.697Z,1.10
2023-08-31T10:30:23.682Z,1.40
2023-08-31T10:31:23.915Z,1.10
2023-08-31T10:32:23.849Z,1.30
2023-08-31T10:33:23.667Z,1.40
2023-08-31T10:34:23.625Z,1.30
2023-08-31T10:35:23.663Z,1.20
2023-08-31T10:36:23.657Z,4.10
2023-08-31T10:37:23.681Z,1.20
2023-08-31T10:38:23.724Z,1.30
2023-08-31T10:39:23.585Z,1.30
2023-08-31T10:40:23.560Z,1.30
2023-08-31T10:41:23.645Z,1.30
2023-08-31T10:42:23.606Z,1.20
2023-08-31T10:43:27.136Z,1.20
2023-08-31T10:44:24.666Z,1.30
2023-08-31T10:45:23.541Z,1.30
2023-08-31T10:46:23.536Z,1.30
2023-08-31T10:47:23.618Z,1.20
2023-08-31T10:48:23.517Z,1.20
2023-08-31T10:49:23.566Z,1.10
2023-08-31T10:50:24.626Z,1.10
2023-08-31T10:51:23.552Z,1.20
2023-08-31T10:52:40.435Z,1.40
2023-08-31T10:53:24.520Z,1.10
2023-08-31T10:54:23.534Z,1.10
2023-08-31T10:55:23.468Z,0.90
2023-08-31T10:56:23.601Z,0.90
2023-08-31T10:57:23.520Z,1.00
2023-08-31T10:58:23.453Z,1.30
2023-08-31T10:59:23.483Z,1.40
2023-08-31T11:00:23.497Z,1.20
2023-08-31T11:01:23.494Z,1.20
2023-08-31T11:02:23.486Z,1.50
2023-08-31T11:03:23.590Z,1.50
2023-08-31T11:04:23.621Z,1.20
2023-08-31T11:05:24.868Z,1.30
2023-08-31T11:06:23.457Z,1.40
2023-08-31T11:07:23.433Z,1.30
2023-08-31T11:08:23.422Z,1.40
2023-08-31T11:09:23.383Z,3.20
2023-08-31T11:10:23.387Z,1.20
2023-08-31T11:11:23.409Z,1.10
2023-08-31T11:12:23.354Z,1.30
2023-08-31T11:13:23.399Z,1.20
2023-08-31T11:14:23.457Z,1.30
2023-08-31T11:15:23.440Z,1.20
2023-08-31T11:16:23.395Z,1.30
2023-08-31T11:17:23.297Z,1.30
2023-08-31T11:18:23.372Z,1.30
2023-08-31T11:19:23.369Z,1.30
2023-08-31T11:20:23.379Z,1.30
2023-08-31T11:21:23.289Z,1.20
2023-08-31T11:22:23.262Z,1.40
2023-08-31T11:23:23.356Z,1.30
2023-08-31T11:24:23.318Z,1.40
2023-08-31T11:25:23.237Z,1.30
2023-08-31T11:26:23.384Z,1.10
2023-08-31T11:27:23.265Z,1.10
2023-08-31T11:28:23.297Z,2.80
2023-08-31T11:29:23.268Z,1.30
2023-08-31T11:30:23.241Z,1.20
2023-08-31T11:31:23.337Z,1.40
2023-08-31T11:32:23.286Z,1.20
2023-08-31T11:33:23.253Z,1.20
2023-08-31T11:34:23.249Z,1.10
2023-08-31T11:35:23.248Z,1.00
2023-08-31T11:36:23.250Z,2.10
2023-08-31T11:37:23.168Z,1.10
2023-08-31T11:38:23.276Z,1.00
2023-08-31T11:39:23.161Z,1.20
2023-08-31T11:40:23.253Z,1.40
2023-08-31T11:41:23.200Z,1.40
2023-08-31T11:42:23.178Z,1.50
2023-08-31T11:43:23.114Z,1.40
2023-08-31T11:44:23.680Z,1.00
2023-08-31T11:45:23.207Z,1.40
2023-08-31T11:46:23.171Z,1.30
2023-08-31T11:47:23.114Z,1.10
2023-08-31T11:48:23.154Z,1.20
2023-08-31T11:49:23.153Z,1.30
2023-08-31T11:50:23.182Z,1.40
2023-08-31T11:51:23.075Z,1.40
2023-08-31T11:52:23.130Z,1.10
2023-08-31T11:53:23.129Z,1.30
2023-08-31T11:54:23.116Z,1.30
2023-08-31T11:55:23.165Z,1.20
2023-08-31T11:56:23.094Z,1.50
2023-08-31T11:57:23.044Z,1.90
2023-08-31T11:58:23.085Z,1.30
2023-08-31T11:59:23.011Z,1.40
2023-08-31T12:00:23.036Z,1.20
2023-08-31T12:01:23.054Z,1.30
2023-08-31T12:02:23.096Z,1.20
2023-08-31T12:03:27.464Z,1.50
2023-08-31T12:04:24.109Z,1.20
2023-08-31T12:05:22.982Z,1.40
2023-08-31T12:06:23.021Z,1.80
2023-08-31T12:07:23.052Z,1.40
2023-08-31T12:08:23.066Z,1.30
2023-08-31T12:09:22.972Z,1.20
2023-08-31T12:10:23.009Z,1.30
2023-08-31T12:11:22.940Z,1.50
2023-08-31T12:12:22.893Z,1.20
2023-08-31T12:13:22.981Z,1.30
2023-08-31T12:14:23.362Z,1.10
2023-08-31T12:15:22.968Z,1.10
2023-08-31T12:16:23.016Z,1.20
2023-08-31T12:17:22.913Z,1.10
2023-08-31T12:18:22.873Z,1.30
2023-08-31T12:19:22.883Z,1.30
2023-08-31T12:20:22.991Z,1.50
2023-08-31T12:21:22.937Z,1.20
2023-08-31T12:22:22.866Z,1.40
2023-08-31T12:23:22.952Z,1.30
2023-08-31T12:24:22.829Z,5.60
2023-08-31T12:25:22.907Z,1.40
2023-08-31T12:26:22.868Z,1.20
2023-08-31T12:27:22.844Z,1.40
2023-08-31T12:28:22.894Z,1.40
2023-08-31T12:29:22.849Z,1.50
2023-08-31T12:30:22.888Z,1.20
2023-08-31T12:31:22.895Z,1.20
2023-08-31T12:32:22.886Z,1.30
2023-08-31T12:33:22.928Z,1.30
2023-08-31T12:34:22.777Z,1.30
2023-08-31T12:35:22.796Z,1.50
2023-08-31T12:36:22.798Z,1.30
2023-08-31T12:37:22.841Z,1.30
2023-08-31T12:38:23.851Z,1.30
2023-08-31T12:39:22.800Z,1.30
2023-08-31T12:40:22.812Z,1.20
2023-08-31T12:41:24.830Z,1.10
2023-08-31T12:42:24.171Z,1.30
2023-08-31T12:43:22.736Z,1.30
2023-08-31T12:44:22.782Z,1.20
2023-08-31T12:45:22.799Z,1.60
2023-08-31T12:46:22.757Z,1.30
2023-08-31T12:47:22.717Z,1.40
2023-08-31T12:48:22.744Z,1.00
2023-08-31T12:49:22.792Z,1.10
2023-08-31T12:50:22.792Z,1.40
2023-08-31T12:51:22.648Z,1.20
2023-08-31T12:52:24.828Z,1.20
2023-08-31T12:53:22.654Z,1.10
2023-08-31T12:54:22.718Z,1.30
2023-08-31T12:55:22.736Z,1.20
2023-08-31T12:56:22.787Z,1.10
2023-08-31T12:57:22.727Z,1.20
2023-08-31T12:58:22.677Z,1.30
2023-08-31T12:59:22.617Z,1.10
2023-08-31T13:00:22.693Z,1.40
2023-08-31T13:01:22.691Z,1.20
2023-08-31T13:02:22.720Z,1.50
2023-08-31T13:03:22.615Z,1.10
2023-08-31T13:04:22.635Z,1.20
2023-08-31T13:05:22.640Z,1.10
2023-08-31T13:06:22.618Z,1.20